Latest Weather Observations for Fitzroy Crossing

IDW60801

Issued at 3:32 pm WST Friday 27 March 2015 (issued every 30 minutes, with the page automatically refreshed every 10 minutes)

About weather observations | Map of weather stations | Latest weather observations for WA | Other Formats
Station Details ID: 003093 Name: FITZROY CROSSING AERO Lat: -18.18 Lon: 125.56 Height: 114.5 m
Data from the previous 72 hours. | See also: Recent months at Fitzroy Crossing
Date/Time
WST
Temp
°C
App
Temp
°C
Dew
Point
Rel
Hum
%
Delta-T
°C
Wind Press
QNH
hPa
Press
MSL
hPa
Rain
since 9 am
mm
Dir
 
Spd
km/h
Gust
km/h
Spd
kts
Gust
kts
27/03:30pm 34.3 32.4 16.6 34 11.3 ENE 22 32 12 17 1010.6 1009.8 0.0
27/03:00pm 35.3 33.0 17.5 34 11.5 E 26 37 14 20 1010.7 1009.9 0.0
27/02:30pm 34.7 32.7 16.5 33 11.6 ENE 22 28 12 15 1010.6 1009.8 0.0
27/02:00pm 35.5 32.5 16.8 33 12.0 ENE 28 43 15 23 1010.8 1010.0 0.0
27/01:30pm 35.2 32.3 17.0 34 11.7 NE 28 44 15 24 1010.9 1010.1 0.0
27/01:00pm 35.8 33.2 17.9 34 11.7 NE 28 43 15 23 1011.2 1010.4 0.0
27/12:38pm 34.9 31.5 16.7 34 11.7 ENE 30 48 16 26 1011.7 1010.9 0.0
27/12:30pm 35.6 32.2 17.8 35 11.6 NE 32 43 17 23 1011.8 1011.0 0.0
27/12:05pm 35.2 32.1 17.4 34 11.5 NE 30 48 16 26 1012.3 1011.5 0.0
27/12:00pm 35.7 32.8 17.9 35 11.6 ENE 30 44 16 24 1012.4 1011.6 0.0
27/11:30am 34.6 31.3 16.9 35 11.4 ENE 30 44 16 24 1013.2 1012.4 0.0
27/11:01am 34.4 30.0 16.7 34 11.3 ENE 35 54 19 29 1013.9 1013.0 0.0
27/11:00am 34.7 30.1 17.0 35 11.4 ENE 37 54 20 29 1013.9 1013.0 0.0
27/10:39am 34.5 30.5 16.8 34 11.3 ENE 33 52 18 28 1014.3 1013.4 0.0
27/10:30am 34.6 31.3 16.9 35 11.3 E 30 44 16 24 1014.4 1013.5 0.0
27/10:00am 33.2 28.6 16.1 35 10.8 ENE 35 54 19 29 1014.8 1013.9 0.0
27/09:31am 32.7 28.8 16.5 37 10.3 E 32 50 17 27 1015.2 1014.3 0.0
27/09:30am 32.4 28.4 16.7 39 10.0 E 33 50 18 27 1015.1 1014.2 0.0
27/09:27am 32.5 29.1 16.8 39 10.0 ENE 30 50 16 27 1015.2 1014.3 0.0
27/09:00am 32.5 31.1 17.9 41 9.4 E 22 35 12 19 1015.5 1014.6 0.0
27/08:30am 30.4 29.7 16.4 43 8.8 ESE 15 22 8 12 1015.5 1014.6 0.0
27/08:00am 30.2 28.9 16.9 44 8.4 E 19 24 10 13 1015.6 1014.7 0.0
27/07:30am 28.4 27.2 16.0 47 7.7 ESE 17 20 9 11 1015.6 1014.7 0.0
27/07:00am 27.6 27.0 15.6 48 7.4 ESE 13 19 7 10 1015.4 1014.5 0.0
27/06:30am 27.1 26.4 15.5 49 7.1 ESE 13 17 7 9 1014.9 1014.0 0.0
27/06:00am 26.8 26.3 15.8 51 6.8 ESE 13 17 7 9 1014.5 1013.6 0.0
27/05:30am 26.7 26.7 16.3 53 6.4 SE 11 15 6 8 1014.2 1013.3 0.0
27/05:00am 26.1 26.0 16.1 54 6.2 SE 11 15 6 8 1014.0 1013.1 0.0
27/04:30am 26.2 26.3 16.4 54 6.1 SE 11 13 6 7 1013.6 1012.8 0.0
27/04:00am 26.1 26.6 16.6 55 5.9 ESE 9 13 5 7 1013.4 1012.6 0.0
27/03:30am 25.8 26.7 16.6 56 5.7 ESE 7 9 4 5 1013.3 1012.5 0.0
27/03:00am 26.0 26.3 17.1 58 5.6 SE 11 13 6 7 1013.2 1012.4 0.0
27/02:30am 25.8 26.6 17.2 59 5.4 SSE 9 11 5 6 1013.4 1012.6 0.0
27/02:00am 25.1 26.0 16.5 59 5.3 SE 7 9 4 5 1013.4 1012.6 0.0
27/01:30am 25.4 26.3 16.5 58 5.5 SSE 7 9 4 5 1013.6 1012.8 0.0
27/01:00am 25.7 26.8 16.5 56 5.7 ESE 6 9 3 5 1013.7 1012.9 0.0
27/12:30am 25.9 26.8 16.5 56 5.8 ESE 7 11 4 6 1014.0 1013.1 0.0
27/12:00am 26.0 26.4 16.3 55 6.0 SE 9 11 5 6 1014.0 1013.1 0.0
 
Date/Time
WST
Temp
°C
App
Temp
°C
Dew
Point
Rel
Hum
%
Delta-T
°C
Wind Press
QNH
hPa
Press
MSL
hPa
Rain
since 9 am
mm
Dir
 
Spd
km/h
Gust
km/h
Spd
kts
Gust
kts
26/11:30pm 26.4 27.1 16.0 52 6.4 ESE 7 9 4 5 1014.2 1013.3 0.0
26/11:00pm 26.8 27.4 15.8 51 6.8 ESE 7 9 4 5 1014.2 1013.3 0.0
26/10:30pm 27.7 28.0 16.0 49 7.2 E 9 11 5 6 1014.2 1013.3 0.0
26/10:00pm 28.3 28.1 16.6 49 7.3 E 13 17 7 9 1014.4 1013.5 0.0
26/09:30pm 28.5 28.9 16.4 48 7.6 E 9 11 5 6 1014.6 1013.7 0.0
26/09:00pm 29.7 29.8 17.5 48 7.8 ESE 13 17 7 9 1014.4 1013.5 0.0
26/08:30pm 30.0 30.5 18.4 49 7.5 ESE 13 19 7 10 1014.1 1013.2 0.0
26/08:00pm 30.3 31.7 18.7 50 7.5 ESE 9 13 5 7 1013.7 1012.9 0.0
26/07:30pm 30.4 31.7 18.5 49 7.7 ESE 9 9 5 5 1013.2 1012.4 0.0
26/07:00pm 30.7 32.4 18.4 47 8.0 SE 7 9 4 5 1012.8 1012.0 0.0
26/06:30pm 31.1 32.5 17.8 45 8.5 ESE 7 9 4 5 1012.4 1011.6 0.0
26/06:00pm 31.4 32.2 17.3 43 9.0 ESE 9 13 5 7 1012.2 1011.4 0.0
26/05:30pm 32.4 33.4 17.8 41 9.4 ESE 9 11 5 6 1012.0 1011.2 0.0
26/05:00pm 32.8 32.9 17.4 39 9.9 E 13 19 7 10 1011.8 1011.0 0.0
26/04:30pm 33.3 32.7 17.5 39 10.2 E 17 26 9 14 1011.7 1010.9 0.0
26/04:00pm 33.5 32.4 17.2 37 10.5 ENE 19 26 10 14 1011.6 1010.8 0.0
26/03:30pm 33.9 32.9 16.7 35 11.0 ENE 17 24 9 13 1011.5 1010.7 0.0
26/03:00pm 35.1 32.3 17.3 34 11.5 E 28 41 15 22 1011.3 1010.5 0.0
26/02:45pm 35.7 32.9 17.4 33 11.9 E 28 46 15 25 1011.3 1010.5 0.0
26/02:30pm 36.2 33.6 17.8 33 12.0 ENE 28 43 15 23 1011.2 1010.4 0.0
26/02:00pm 36.2 34.7 17.8 33 12.0 ENE 22 37 12 20 1011.3 1010.5 0.0
26/01:30pm 36.3 34.7 18.4 35 11.8 E 24 35 13 19 1011.5 1010.7 0.0
26/01:00pm 36.5 35.2 19.0 35 11.6 ESE 24 41 13 22 1012.0 1011.2 0.0
26/12:30pm 35.9 34.5 18.9 36 11.2 ESE 24 41 13 22 1012.4 1011.6 0.0
26/12:00pm 34.9 34.1 18.5 38 10.8 E 20 35 11 19 1012.9 1012.1 0.0
26/11:30am 35.6 34.3 19.1 38 10.9 ESE 24 37 13 20 1013.2 1012.4 0.0
26/11:00am 34.9 34.1 19.3 40 10.3 ESE 22 35 12 19 1013.7 1012.9 0.0
26/10:30am 35.0 35.0 20.2 42 9.9 E 20 33 11 18 1014.2 1013.3 0.0
26/10:00am 34.1 33.5 20.5 45 9.1 ENE 24 39 13 21 1014.5 1013.6 0.0
26/09:30am 33.5 32.6 20.6 46 8.7 ENE 26 35 14 19 1014.8 1013.9 0.0
26/09:00am 33.0 32.4 21.2 50 8.0 ENE 26 39 14 21 1014.9 1014.0 0.2
26/08:30am 32.1 33.0 21.6 53 7.1 ENE 19 30 10 16 1014.9 1014.0 0.2
26/08:00am 30.9 32.2 21.7 58 6.2 E 17 24 9 13 1014.9 1014.0 0.2
26/07:30am 29.3 31.2 21.3 62 5.4 E 13 19 7 10 1014.6 1013.7 0.2
26/07:00am 27.6 30.2 20.4 65 4.7 E 7 11 4 6 1014.2 1013.3 0.2
26/06:30am 26.2 28.5 19.8 68 4.2 E 7 11 4 6 1013.6 1012.8 0.2
26/06:00am 24.8 26.2 18.7 69 3.9 ESE 9 11 5 6 1013.4 1012.6 0.2
26/05:30am 24.0 26.9 18.2 70 3.7 CALM 0 0 0 0 1012.9 1012.1 0.2
26/05:00am 23.3 25.8 17.3 69 3.7 CALM 0 0 0 0 1012.4 1011.6 0.2
26/04:30am 24.7 27.6 18.2 67 4.1 CALM 0 0 0 0 1012.1 1011.3 0.2
26/04:00am 24.6 27.5 18.1 67 4.1 CALM 0 0 0 0 1011.9 1011.1 0.2
26/03:30am 24.6 27.5 18.3 68 4.0 CALM 0 0 0 0 1011.7 1010.9 0.2
26/03:00am 24.1 26.8 17.8 68 4.0 CALM 0 0 0 0 1011.4 1010.6 0.2
26/02:30am 24.7 27.5 17.9 66 4.3 CALM 0 0 0 0 1011.5 1010.7 0.2
26/02:00am 25.4 28.6 18.8 67 4.2 CALM 0 0 0 0 1011.6 1010.8 0.2
26/01:30am 25.5 28.7 18.9 67 4.2 CALM 0 0 0 0 1011.6 1010.8 0.2
26/01:00am 25.1 28.3 18.8 68 4.0 CALM 0 0 0 0 1011.7 1010.9 0.2
26/12:30am 25.8 29.1 19.0 66 4.4 CALM 0 0 0 0 1011.8 1011.0 0.2
26/12:00am 25.6 28.6 18.5 65 4.5 CALM 0 0 0 0 1011.7 1010.9 0.2
 
Date/Time
WST
Temp
°C
App
Temp
°C
Dew
Point
Rel
Hum
%
Delta-T
°C
Wind Press
QNH
hPa
Press
MSL
hPa
Rain
since 9 am
mm
Dir
 
Spd
km/h
Gust
km/h
Spd
kts
Gust
kts
25/11:30pm 26.1 29.0 18.2 61 5.0 CALM 0 6 0 3 1012.0 1011.2 0.2
25/11:00pm 27.6 28.8 19.9 63 5.0 SSE 13 17 7 9 1012.1 1011.3 0.2
25/10:30pm 27.6 29.9 19.4 61 5.3 S 6 9 3 5 1011.9 1011.1 0.2
25/10:00pm 28.0 31.5 19.5 60 5.5 CALM 0 0 0 0 1011.7 1010.9 0.2
25/09:30pm 28.1 31.5 19.3 58 5.7 CALM 0 0 0 0 1011.7 1010.9 0.2
25/09:00pm 28.2 31.3 18.6 56 6.2 CALM 0 0 0 0 1011.7 1010.9 0.2
25/08:30pm 28.9 31.8 18.1 52 6.9 CALM 0 0 0 0 1011.5 1010.7 0.2
25/08:00pm 29.7 30.8 16.5 45 8.3 ENE 6 7 3 4 1011.3 1010.5 0.2
25/07:30pm 30.8 30.9 15.6 39 9.4 ENE 9 11 5 6 1011.0 1010.2 0.2
25/07:00pm 31.1 31.4 15.1 38 9.9 ENE 7 9 4 5 1010.9 1010.1 0.2
25/06:30pm 31.7 31.9 14.8 36 10.4 E 7 9 4 5 1010.6 1009.8 0.2
25/06:00pm 32.9 32.8 15.0 34 11.1 E 9 9 5 5 1010.3 1009.5 0.2
25/05:30pm 34.5 34.8 14.9 31 12.2 ESE 7 9 4 5 1010.1 1009.3 0.2
25/05:00pm 36.2 35.5 15.3 28 13.2 ESE 13 17 7 9 1010.0 1009.2 0.2
25/04:30pm 36.9 36.4 15.9 28 13.4 SE 13 17 7 9 1009.8 1008.9 0.2
25/04:00pm 37.2 36.8 16.2 29 13.5 E 13 20 7 11 1009.7 1008.8 0.2
25/03:30pm 37.4 37.9 17.4 30 13.0 E 11 17 6 9 1009.5 1008.6 0.2
25/03:00pm 37.4 37.7 17.9 31 12.8 NE 13 20 7 11 1009.5 1008.6 0.2
25/02:30pm 37.1 36.9 18.6 33 12.2 NE 17 30 9 16 1009.5 1008.6 0.2
25/02:00pm 37.1 38.9 19.5 35 11.8 E 9 22 5 12 1009.7 1008.8 0.2
25/01:30pm 37.5 39.1 20.8 38 11.4 ENE 13 19 7 10 1010.0 1009.2 0.2
25/01:00pm 36.2 37.1 20.0 38 10.9 NNE 15 24 8 13 1010.3 1009.5 0.2
25/12:30pm 36.6 38.3 22.4 44 9.8 NE 17 26 9 14 1010.9 1010.1 0.2
25/12:00pm 35.6 38.0 22.9 48 8.8 NNE 15 22 8 12 1011.0 1010.2 0.2
25/11:30am 34.8 37.9 23.5 52 7.9 NNE 13 20 7 11 1011.6 1010.8 0.2
25/11:00am 34.5 37.0 23.8 53 7.5 NNE 17 28 9 15 1012.1 1011.3 0.2
25/10:30am 33.9 36.6 24.2 57 6.8 NNE 17 24 9 13 1012.6 1011.8 0.2
25/10:00am 33.8 37.5 25.2 60 6.1 NNE 15 22 8 12 1012.9 1012.1 0.2
25/09:30am 32.5 36.2 25.1 65 5.3 ENE 15 24 8 13 1013.1 1012.3 0.0
25/09:00am 31.4 36.1 25.0 69 4.5 E 9 17 5 9 1013.4 1012.6 9.2
25/08:30am 30.6 36.0 25.4 74 3.7 SE 7 11 4 6 1013.4 1012.6 9.2
25/08:00am 30.2 37.6 26.4 80 2.7 CALM 0 4 0 2 1013.5 1012.7 9.2
25/07:30am 28.0 32.7 25.0 84 2.1 NE 9 11 5 6 1013.4 1012.6 9.2
25/07:00am 26.8 32.9 24.5 87 1.6 CALM 0 0 0 0 1013.0 1012.2 9.2
25/06:30am 26.1 32.1 24.3 90 1.2 CALM 0 0 0 0 1012.5 1011.7 9.2
25/06:00am 24.9 30.2 23.0 89 1.3 CALM 0 0 0 0 1012.1 1011.3 9.2
25/05:30am 24.9 30.0 22.6 87 1.6 CALM 0 0 0 0 1011.9 1011.1 9.2
25/05:00am 24.5 29.0 21.6 84 1.9 CALM 0 0 0 0 1011.8 1011.0 9.2
25/04:30am 25.2 29.9 21.9 82 2.2 CALM 0 0 0 0 1011.4 1010.6 9.2
25/04:00am 25.2 29.8 21.7 81 2.3 CALM 0 0 0 0 1011.0 1010.2 9.2
25/03:30am 25.4 29.9 21.5 79 2.6 CALM 0 0 0 0 1010.9 1010.1 9.2
25/03:00am 25.5 29.9 21.4 78 2.7 CALM 0 0 0 0 1010.5 1009.7 9.2
25/02:30am 25.8 28.0 21.2 76 3.1 SE 11 13 6 7 1010.3 1009.5 9.2
25/02:00am 26.0 29.0 21.2 75 3.2 E 7 11 4 6 1010.2 1009.4 9.2
25/01:30am 26.5 31.0 21.5 74 3.3 CALM 0 0 0 0 1010.2 1009.4 9.2
25/01:00am 26.2 29.1 21.0 73 3.4 NE 7 13 4 7 1010.2 1009.4 9.2
25/12:30am 25.9 27.9 20.7 73 3.4 NNE 11 13 6 7 1010.2 1009.4 9.2
25/12:00am 26.0 27.6 20.8 73 3.4 WSW 13 19 7 10 1010.4 1009.6 9.2
 
Date/Time
WST
Temp
°C
App
Temp
°C
Dew
Point
Rel
Hum
%
Delta-T
°C
Wind Press
QNH
hPa
Press
MSL
hPa
Rain
since 9 am
mm
Dir
 
Spd
km/h
Gust
km/h
Spd
kts
Gust
kts
24/11:30pm 25.5 26.8 20.1 72 3.5 WNW 13 15 7 8 1011.4 1010.6 9.2
24/11:00pm 24.9 26.4 18.8 69 3.9 NW 9 13 5 7 1012.2 1011.4 9.2
24/10:30pm 24.7 24.2 17.7 65 4.4 SW 17 20 9 11 1012.7 1011.9 8.6
24/10:00pm 25.5 24.3 17.4 61 5.1 S 20 33 11 18 1012.6 1011.8 8.2
24/09:30pm 25.5 22.4 15.5 54 6.1 SE 26 41 14 22 1012.8 1012.0 5.4
24/09:00pm 27.7 27.7 18.1 56 6.1 N 15 32 8 17 1012.0 1011.2 5.2
24/08:30pm 28.6 31.6 18.4 54 6.6 CALM 0 0 0 0 1011.0 1010.2 5.2
24/08:00pm 28.2 28.7 17.4 52 6.8 SW 11 15 6 8 1011.0 1010.2 5.2
24/07:30pm 27.8 27.3 15.8 48 7.4 WSW 13 22 7 12 1010.8 1010.0 5.2
24/07:02pm 28.2 23.3 13.7 41 8.7 W 32 50 17 27 1010.4 1009.6 5.0
24/07:00pm 27.4 22.9 12.6 40 8.7 WSW 28 50 15 27 1010.4 1009.6 5.0
24/06:58pm 27.2 22.9 12.0 38 8.8 WSW 26 50 14 27 1010.4 1009.6 5.0
24/06:48pm 27.4 25.3 11.0 36 9.4 NNW 13 39 7 21 1010.7 1009.9 3.6
24/06:30pm 32.7 32.0 14.3 32 11.3 ESE 11 15 6 8 1009.7 1008.8 0.0
24/06:00pm 33.5 31.1 14.5 31 11.7 SSW 20 32 11 17 1009.1 1008.2 0.0
24/05:30pm 35.3 35.8 15.6 31 12.4 NW 7 9 4 5 1008.5 1007.6 0.0
24/05:00pm 37.1 37.6 15.5 27 13.7 NNW 7 9 4 5 1008.1 1007.2 0.0
24/04:30pm 37.8 37.9 15.6 27 14.1 NW 9 11 5 6 1007.7 1006.8 0.0
24/04:00pm 37.9 38.1 15.7 27 14.2 NNE 9 13 5 7 1007.5 1006.6 0.0

Other Formats:

Comma delimited format used in spreadsheet applications
http://www.bom.gov.au/fwo/IDW60801/IDW60801.94206.axf

JavaScript Object Notation format (JSON) in row-major order
http://www.bom.gov.au/fwo/IDW60801/IDW60801.94206.json